sensor_id;sensor_type;location;lat;lon;timestamp;P1;durP1;ratioP1;P2;durP2;ratioP2
9972;SDS011;5027;53.560;10.062;2023-04-25T00:00:11;8.57;;;3.07;;
9972;SDS011;5027;53.560;10.062;2023-04-25T00:02:38;5.20;;;3.10;;
9972;SDS011;5027;53.560;10.062;2023-04-25T00:05:04;5.80;;;2.97;;
9972;SDS011;5027;53.560;10.062;2023-04-25T00:07:32;6.93;;;3.13;;
9972;SDS011;5027;53.560;10.062;2023-04-25T00:09:58;1.40;;;1.30;;
9972;SDS011;5027;53.560;10.062;2023-04-25T00:12:25;5.43;;;2.73;;
9972;SDS011;5027;53.560;10.062;2023-04-25T00:14:54;8.03;;;3.00;;
9972;SDS011;5027;53.560;10.062;2023-04-25T00:17:23;5.27;;;2.97;;
9972;SDS011;5027;53.560;10.062;2023-04-25T00:19:50;3.67;;;2.17;;
9972;SDS011;5027;53.560;10.062;2023-04-25T00:22:17;2.83;;;1.70;;
9972;SDS011;5027;53.560;10.062;2023-04-25T00:24:44;9.23;;;3.47;;
9972;SDS011;5027;53.560;10.062;2023-04-25T00:27:11;1.97;;;1.60;;
9972;SDS011;5027;53.560;10.062;2023-04-25T00:29:37;4.03;;;2.00;;
9972;SDS011;5027;53.560;10.062;2023-04-25T00:32:04;9.17;;;4.17;;
9972;SDS011;5027;53.560;10.062;2023-04-25T00:34:31;1.47;;;1.37;;
9972;SDS011;5027;53.560;10.062;2023-04-25T00:36:57;11.33;;;3.67;;
9972;SDS011;5027;53.560;10.062;2023-04-25T00:39:24;9.20;;;3.27;;
9972;SDS011;5027;53.560;10.062;2023-04-25T00:41:51;12.90;;;4.20;;
9972;SDS011;5027;53.560;10.062;2023-04-25T00:44:20;2.40;;;1.63;;
9972;SDS011;5027;53.560;10.062;2023-04-25T00:46:48;8.57;;;3.50;;
9972;SDS011;5027;53.560;10.062;2023-04-25T00:49:16;15.70;;;4.43;;
9972;SDS011;5027;53.560;10.062;2023-04-25T00:51:43;10.70;;;3.47;;
9972;SDS011;5027;53.560;10.062;2023-04-25T00:54:11;10.63;;;4.17;;
9972;SDS011;5027;53.560;10.062;2023-04-25T00:56:39;9.93;;;4.07;;
9972;SDS011;5027;53.560;10.062;2023-04-25T00:59:06;2.60;;;1.73;;
9972;SDS011;5027;53.560;10.062;2023-04-25T01:01:33;11.37;;;4.17;;
9972;SDS011;5027;53.560;10.062;2023-04-25T01:04:01;14.00;;;5.13;;
9972;SDS011;5027;53.560;10.062;2023-04-25T01:06:28;11.37;;;3.83;;
9972;SDS011;5027;53.560;10.062;2023-04-25T01:08:56;4.00;;;2.03;;
9972;SDS011;5027;53.560;10.062;2023-04-25T01:11:23;8.00;;;2.73;;
9972;SDS011;5027;53.560;10.062;2023-04-25T01:13:49;12.90;;;4.63;;
9972;SDS011;5027;53.560;10.062;2023-04-25T01:16:17;14.20;;;4.90;;
9972;SDS011;5027;53.560;10.062;2023-04-25T01:18:45;19.07;;;4.97;;
9972;SDS011;5027;53.560;10.062;2023-04-25T01:21:12;15.53;;;4.60;;
9972;SDS011;5027;53.560;10.062;2023-04-25T01:23:39;12.07;;;3.93;;
9972;SDS011;5027;53.560;10.062;2023-04-25T01:26:08;12.77;;;4.90;;
9972;SDS011;5027;53.560;10.062;2023-04-25T01:28:36;10.80;;;3.57;;
9972;SDS011;5027;53.560;10.062;2023-04-25T01:31:04;10.77;;;4.47;;
9972;SDS011;5027;53.560;10.062;2023-04-25T01:33:31;9.20;;;3.80;;
9972;SDS011;5027;53.560;10.062;2023-04-25T01:35:58;20.67;;;6.00;;
9972;SDS011;5027;53.560;10.062;2023-04-25T01:38:25;9.53;;;3.17;;
9972;SDS011;5027;53.560;10.062;2023-04-25T01:40:53;4.17;;;2.27;;
9972;SDS011;5027;53.560;10.062;2023-04-25T01:43:21;14.87;;;5.27;;
9972;SDS011;5027;53.560;10.062;2023-04-25T01:45:47;7.10;;;3.30;;
9972;SDS011;5027;53.560;10.062;2023-04-25T01:48:15;12.00;;;4.17;;
9972;SDS011;5027;53.560;10.062;2023-04-25T01:50:43;19.97;;;5.60;;
9972;SDS011;5027;53.560;10.062;2023-04-25T01:53:11;18.00;;;5.63;;
9972;SDS011;5027;53.560;10.062;2023-04-25T01:55:40;12.90;;;4.87;;
9972;SDS011;5027;53.560;10.062;2023-04-25T01:58:10;21.70;;;5.77;;
9972;SDS011;5027;53.560;10.062;2023-04-25T02:00:57;18.37;;;5.90;;
9972;SDS011;5027;53.560;10.062;2023-04-25T02:03:30;21.10;;;5.87;;
9972;SDS011;5027;53.560;10.062;2023-04-25T02:05:59;18.73;;;5.87;;
9972;SDS011;5027;53.560;10.062;2023-04-25T02:08:26;16.67;;;5.23;;
9972;SDS011;5027;53.560;10.062;2023-04-25T02:10:54;15.13;;;5.83;;
9972;SDS011;5027;53.560;10.062;2023-04-25T02:13:22;5.23;;;2.60;;
9972;SDS011;5027;53.560;10.062;2023-04-25T02:16:10;15.67;;;4.53;;
9972;SDS011;5027;53.560;10.062;2023-04-25T02:18:37;15.03;;;5.17;;
9972;SDS011;5027;53.560;10.062;2023-04-25T02:21:05;12.97;;;4.60;;
9972;SDS011;5027;53.560;10.062;2023-04-25T02:23:32;19.23;;;6.03;;
9972;SDS011;5027;53.560;10.062;2023-04-25T02:25:59;17.93;;;5.27;;
9972;SDS011;5027;53.560;10.062;2023-04-25T02:28:25;17.67;;;4.83;;
9972;SDS011;5027;53.560;10.062;2023-04-25T02:30:52;12.27;;;3.60;;
9972;SDS011;5027;53.560;10.062;2023-04-25T02:33:19;18.37;;;6.37;;
9972;SDS011;5027;53.560;10.062;2023-04-25T02:35:47;15.43;;;5.23;;
9972;SDS011;5027;53.560;10.062;2023-04-25T02:38:14;16.40;;;5.37;;
9972;SDS011;5027;53.560;10.062;2023-04-25T02:40:40;20.43;;;6.03;;
9972;SDS011;5027;53.560;10.062;2023-04-25T02:43:07;19.50;;;6.17;;
9972;SDS011;5027;53.560;10.062;2023-04-25T02:45:34;19.07;;;6.53;;
9972;SDS011;5027;53.560;10.062;2023-04-25T02:48:02;22.60;;;5.70;;
9972;SDS011;5027;53.560;10.062;2023-04-25T02:50:31;18.67;;;5.80;;
9972;SDS011;5027;53.560;10.062;2023-04-25T02:52:57;20.70;;;5.97;;
9972;SDS011;5027;53.560;10.062;2023-04-25T02:55:29;9.20;;;3.37;;
9972;SDS011;5027;53.560;10.062;2023-04-25T02:57:58;18.80;;;5.57;;
9972;SDS011;5027;53.560;10.062;2023-04-25T03:00:43;23.07;;;5.70;;
9972;SDS011;5027;53.560;10.062;2023-04-25T03:03:10;11.37;;;3.60;;
9972;SDS011;5027;53.560;10.062;2023-04-25T03:05:37;5.30;;;2.87;;
9972;SDS011;5027;53.560;10.062;2023-04-25T03:08:04;20.83;;;6.00;;
9972;SDS011;5027;53.560;10.062;2023-04-25T03:10:35;13.27;;;4.93;;
9972;SDS011;5027;53.560;10.062;2023-04-25T03:13:05;11.37;;;4.00;;
9972;SDS011;5027;53.560;10.062;2023-04-25T03:15:31;17.27;;;4.60;;
9972;SDS011;5027;53.560;10.062;2023-04-25T03:17:58;16.00;;;4.50;;
9972;SDS011;5027;53.560;10.062;2023-04-25T03:20:25;16.10;;;5.73;;
9972;SDS011;5027;53.560;10.062;2023-04-25T03:22:51;15.47;;;4.80;;
9972;SDS011;5027;53.560;10.062;2023-04-25T03:25:18;16.10;;;5.17;;
9972;SDS011;5027;53.560;10.062;2023-04-25T03:27:45;17.43;;;5.17;;
9972;SDS011;5027;53.560;10.062;2023-04-25T03:30:12;13.20;;;4.60;;
9972;SDS011;5027;53.560;10.062;2023-04-25T03:32:40;15.73;;;4.80;;
9972;SDS011;5027;53.560;10.062;2023-04-25T03:35:07;14.73;;;4.93;;
9972;SDS011;5027;53.560;10.062;2023-04-25T03:37:34;18.10;;;4.93;;
9972;SDS011;5027;53.560;10.062;2023-04-25T03:40:01;20.57;;;5.17;;
9972;SDS011;5027;53.560;10.062;2023-04-25T03:42:48;8.83;;;3.40;;
9972;SDS011;5027;53.560;10.062;2023-04-25T03:45:15;18.63;;;4.80;;
9972;SDS011;5027;53.560;10.062;2023-04-25T03:47:41;17.07;;;5.03;;
9972;SDS011;5027;53.560;10.062;2023-04-25T03:50:08;13.77;;;4.80;;
9972;SDS011;5027;53.560;10.062;2023-04-25T03:52:36;18.37;;;5.40;;
9972;SDS011;5027;53.560;10.062;2023-04-25T03:55:03;17.47;;;5.00;;
9972;SDS011;5027;53.560;10.062;2023-04-25T03:57:30;18.07;;;5.47;;
9972;SDS011;5027;53.560;10.062;2023-04-25T03:59:57;16.10;;;5.13;;
9972;SDS011;5027;53.560;10.062;2023-04-25T04:02:27;11.60;;;3.87;;
9972;SDS011;5027;53.560;10.062;2023-04-25T04:04:55;13.10;;;4.70;;
9972;SDS011;5027;53.560;10.062;2023-04-25T04:07:23;18.43;;;5.30;;
9972;SDS011;5027;53.560;10.062;2023-04-25T04:09:53;19.70;;;5.93;;
9972;SDS011;5027;53.560;10.062;2023-04-25T04:12:26;14.90;;;4.57;;
9972;SDS011;5027;53.560;10.062;2023-04-25T04:14:52;12.03;;;4.20;;
9972;SDS011;5027;53.560;10.062;2023-04-25T04:17:19;11.90;;;4.80;;
9972;SDS011;5027;53.560;10.062;2023-04-25T04:19:47;15.57;;;5.33;;
9972;SDS011;5027;53.560;10.062;2023-04-25T04:22:17;20.63;;;4.80;;
9972;SDS011;5027;53.560;10.062;2023-04-25T04:24:45;14.57;;;4.43;;
9972;SDS011;5027;53.560;10.062;2023-04-25T04:27:19;14.30;;;4.43;;
9972;SDS011;5027;53.560;10.062;2023-04-25T04:30:11;13.73;;;5.03;;
9972;SDS011;5027;53.560;10.062;2023-04-25T04:32:51;15.40;;;4.60;;
9972;SDS011;5027;53.560;10.062;2023-04-25T04:35:20;14.17;;;4.83;;
9972;SDS011;5027;53.560;10.062;2023-04-25T04:37:47;18.17;;;5.00;;
9972;SDS011;5027;53.560;10.062;2023-04-25T04:40:15;14.53;;;4.33;;
9972;SDS011;5027;53.560;10.062;2023-04-25T04:42:48;12.87;;;4.40;;
9972;SDS011;5027;53.560;10.062;2023-04-25T04:45:34;14.07;;;4.37;;
9972;SDS011;5027;53.560;10.062;2023-04-25T04:48:18;15.00;;;5.17;;
9972;SDS011;5027;53.560;10.062;2023-04-25T04:51:03;16.60;;;4.80;;
9972;SDS011;5027;53.560;10.062;2023-04-25T04:53:49;15.63;;;5.27;;
9972;SDS011;5027;53.560;10.062;2023-04-25T04:56:46;12.17;;;4.10;;
9972;SDS011;5027;53.560;10.062;2023-04-25T04:59:37;11.73;;;4.47;;
9972;SDS011;5027;53.560;10.062;2023-04-25T05:02:19;12.77;;;4.57;;
9972;SDS011;5027;53.560;10.062;2023-04-25T05:04:59;16.87;;;4.37;;
9972;SDS011;5027;53.560;10.062;2023-04-25T05:07:46;15.73;;;4.73;;
9972;SDS011;5027;53.560;10.062;2023-04-25T05:10:27;13.17;;;4.97;;
9972;SDS011;5027;53.560;10.062;2023-04-25T05:13:03;14.67;;;4.97;;
9972;SDS011;5027;53.560;10.062;2023-04-25T05:15:41;17.77;;;5.13;;
9972;SDS011;5027;53.560;10.062;2023-04-25T05:18:26;6.87;;;2.97;;
9972;SDS011;5027;53.560;10.062;2023-04-25T05:21:04;14.27;;;4.27;;
9972;SDS011;5027;53.560;10.062;2023-04-25T05:23:47;12.53;;;4.37;;
9972;SDS011;5027;53.560;10.062;2023-04-25T05:26:49;11.43;;;3.83;;
9972;SDS011;5027;53.560;10.062;2023-04-25T05:29:25;12.83;;;4.20;;
9972;SDS011;5027;53.560;10.062;2023-04-25T05:32:00;18.43;;;5.37;;
9972;SDS011;5027;53.560;10.062;2023-04-25T05:34:27;12.20;;;4.30;;
9972;SDS011;5027;53.560;10.062;2023-04-25T05:36:57;10.83;;;4.00;;
9972;SDS011;5027;53.560;10.062;2023-04-25T05:39:24;16.70;;;4.53;;
9972;SDS011;5027;53.560;10.062;2023-04-25T05:42:05;11.03;;;4.30;;
9972;SDS011;5027;53.560;10.062;2023-04-25T05:44:50;12.50;;;3.93;;
9972;SDS011;5027;53.560;10.062;2023-04-25T05:47:52;18.63;;;5.10;;
9972;SDS011;5027;53.560;10.062;2023-04-25T05:50:25;5.90;;;2.93;;
9972;SDS011;5027;53.560;10.062;2023-04-25T05:52:54;13.90;;;4.13;;
9972;SDS011;5027;53.560;10.062;2023-04-25T05:55:29;11.23;;;3.83;;
9972;SDS011;5027;53.560;10.062;2023-04-25T05:57:58;16.20;;;4.43;;
9972;SDS011;5027;53.560;10.062;2023-04-25T06:00:25;13.27;;;4.27;;
9972;SDS011;5027;53.560;10.062;2023-04-25T06:02:52;15.97;;;5.10;;
9972;SDS011;5027;53.560;10.062;2023-04-25T06:05:20;12.37;;;4.40;;
9972;SDS011;5027;53.560;10.062;2023-04-25T06:07:47;13.10;;;4.33;;
9972;SDS011;5027;53.560;10.062;2023-04-25T06:10:13;15.00;;;5.00;;
9972;SDS011;5027;53.560;10.062;2023-04-25T06:12:41;15.83;;;4.67;;
9972;SDS011;5027;53.560;10.062;2023-04-25T06:15:08;12.60;;;4.43;;
9972;SDS011;5027;53.560;10.062;2023-04-25T06:17:52;10.60;;;4.17;;
9972;SDS011;5027;53.560;10.062;2023-04-25T06:20:19;13.47;;;4.33;;
9972;SDS011;5027;53.560;10.062;2023-04-25T06:22:50;13.47;;;4.10;;
9972;SDS011;5027;53.560;10.062;2023-04-25T06:25:20;12.53;;;3.83;;
9972;SDS011;5027;53.560;10.062;2023-04-25T06:27:47;12.33;;;4.47;;
9972;SDS011;5027;53.560;10.062;2023-04-25T06:30:13;3.70;;;1.93;;
9972;SDS011;5027;53.560;10.062;2023-04-25T06:32:41;10.80;;;3.90;;
9972;SDS011;5027;53.560;10.062;2023-04-25T06:35:08;13.37;;;4.30;;
9972;SDS011;5027;53.560;10.062;2023-04-25T06:37:35;11.63;;;4.27;;
9972;SDS011;5027;53.560;10.062;2023-04-25T06:40:02;14.10;;;4.70;;
9972;SDS011;5027;53.560;10.062;2023-04-25T06:42:29;10.50;;;4.00;;
9972;SDS011;5027;53.560;10.062;2023-04-25T06:44:57;12.43;;;4.30;;
9972;SDS011;5027;53.560;10.062;2023-04-25T06:47:26;15.27;;;4.70;;
9972;SDS011;5027;53.560;10.062;2023-04-25T06:49:53;14.63;;;6.07;;
9972;SDS011;5027;53.560;10.062;2023-04-25T06:52:20;4.50;;;2.63;;
9972;SDS011;5027;53.560;10.062;2023-04-25T06:54:47;12.83;;;4.03;;
9972;SDS011;5027;53.560;10.062;2023-04-25T06:57:22;8.20;;;3.67;;
9972;SDS011;5027;53.560;10.062;2023-04-25T06:59:49;11.50;;;3.50;;
9972;SDS011;5027;53.560;10.062;2023-04-25T07:02:16;13.13;;;4.00;;
9972;SDS011;5027;53.560;10.062;2023-04-25T07:04:43;13.13;;;4.73;;
9972;SDS011;5027;53.560;10.062;2023-04-25T07:07:12;9.47;;;3.47;;
9972;SDS011;5027;53.560;10.062;2023-04-25T07:09:45;12.70;;;3.83;;
9972;SDS011;5027;53.560;10.062;2023-04-25T07:12:12;7.17;;;3.00;;
9972;SDS011;5027;53.560;10.062;2023-04-25T07:14:38;6.93;;;2.93;;
9972;SDS011;5027;53.560;10.062;2023-04-25T07:17:07;11.07;;;3.20;;
9972;SDS011;5027;53.560;10.062;2023-04-25T07:19:33;7.37;;;3.40;;
9972;SDS011;5027;53.560;10.062;2023-04-25T07:22:01;10.07;;;3.60;;
9972;SDS011;5027;53.560;10.062;2023-04-25T07:24:29;14.13;;;4.17;;
9972;SDS011;5027;53.560;10.062;2023-04-25T07:26:56;10.13;;;3.33;;
9972;SDS011;5027;53.560;10.062;2023-04-25T07:29:33;8.57;;;3.73;;
9972;SDS011;5027;53.560;10.062;2023-04-25T07:32:03;12.80;;;3.70;;
9972;SDS011;5027;53.560;10.062;2023-04-25T07:34:30;13.70;;;3.30;;
9972;SDS011;5027;53.560;10.062;2023-04-25T07:36:58;13.13;;;3.17;;
9972;SDS011;5027;53.560;10.062;2023-04-25T07:39:31;11.23;;;4.00;;
9972;SDS011;5027;53.560;10.062;2023-04-25T07:41:59;11.43;;;3.70;;
9972;SDS011;5027;53.560;10.062;2023-04-25T07:44:28;13.10;;;4.50;;
9972;SDS011;5027;53.560;10.062;2023-04-25T07:46:57;11.93;;;3.67;;
9972;SDS011;5027;53.560;10.062;2023-04-25T07:49:23;7.60;;;3.13;;
9972;SDS011;5027;53.560;10.062;2023-04-25T07:51:50;7.90;;;3.03;;
9972;SDS011;5027;53.560;10.062;2023-04-25T07:54:19;15.03;;;3.60;;
9972;SDS011;5027;53.560;10.062;2023-04-25T07:56:51;13.03;;;3.87;;
9972;SDS011;5027;53.560;10.062;2023-04-25T07:59:24;11.53;;;3.30;;
9972;SDS011;5027;53.560;10.062;2023-04-25T08:01:54;8.87;;;3.17;;
9972;SDS011;5027;53.560;10.062;2023-04-25T08:04:20;6.20;;;2.70;;
9972;SDS011;5027;53.560;10.062;2023-04-25T08:06:52;7.47;;;2.37;;
9972;SDS011;5027;53.560;10.062;2023-04-25T08:09:26;12.83;;;3.40;;
9972;SDS011;5027;53.560;10.062;2023-04-25T08:11:54;9.57;;;3.23;;
9972;SDS011;5027;53.560;10.062;2023-04-25T08:14:26;8.73;;;3.30;;
9972;SDS011;5027;53.560;10.062;2023-04-25T08:16:53;5.00;;;2.40;;
9972;SDS011;5027;53.560;10.062;2023-04-25T08:19:19;12.87;;;3.60;;
9972;SDS011;5027;53.560;10.062;2023-04-25T08:21:46;5.47;;;2.70;;
9972;SDS011;5027;53.560;10.062;2023-04-25T08:24:18;8.97;;;2.93;;
9972;SDS011;5027;53.560;10.062;2023-04-25T08:26:44;8.47;;;3.33;;
9972;SDS011;5027;53.560;10.062;2023-04-25T08:29:15;4.47;;;2.50;;
9972;SDS011;5027;53.560;10.062;2023-04-25T08:31:42;8.23;;;2.83;;
9972;SDS011;5027;53.560;10.062;2023-04-25T08:34:09;7.50;;;2.63;;
9972;SDS011;5027;53.560;10.062;2023-04-25T08:36:42;4.83;;;2.23;;
9972;SDS011;5027;53.560;10.062;2023-04-25T08:39:22;4.70;;;2.23;;
9972;SDS011;5027;53.560;10.062;2023-04-25T08:42:09;9.93;;;3.57;;
9972;SDS011;5027;53.560;10.062;2023-04-25T08:44:38;5.93;;;2.80;;
9972;SDS011;5027;53.560;10.062;2023-04-25T08:47:05;3.67;;;2.23;;
9972;SDS011;5027;53.560;10.062;2023-04-25T08:49:40;4.80;;;2.43;;
9972;SDS011;5027;53.560;10.062;2023-04-25T08:52:12;3.80;;;2.17;;
9972;SDS011;5027;53.560;10.062;2023-04-25T08:54:41;7.70;;;2.90;;
9972;SDS011;5027;53.560;10.062;2023-04-25T08:57:12;9.47;;;3.20;;
9972;SDS011;5027;53.560;10.062;2023-04-25T08:59:40;4.87;;;2.17;;
9972;SDS011;5027;53.560;10.062;2023-04-25T09:02:12;8.10;;;2.93;;
9972;SDS011;5027;53.560;10.062;2023-04-25T09:04:47;12.20;;;3.30;;
9972;SDS011;5027;53.560;10.062;2023-04-25T09:07:14;7.87;;;3.10;;
9972;SDS011;5027;53.560;10.062;2023-04-25T09:09:44;13.63;;;3.97;;
9972;SDS011;5027;53.560;10.062;2023-04-25T09:12:12;4.97;;;2.47;;
9972;SDS011;5027;53.560;10.062;2023-04-25T09:14:39;8.60;;;3.40;;
9972;SDS011;5027;53.560;10.062;2023-04-25T09:17:17;5.43;;;2.50;;
9972;SDS011;5027;53.560;10.062;2023-04-25T09:19:52;3.93;;;2.00;;
9972;SDS011;5027;53.560;10.062;2023-04-25T09:22:24;6.90;;;2.60;;
9972;SDS011;5027;53.560;10.062;2023-04-25T09:24:51;5.23;;;2.30;;
9972;SDS011;5027;53.560;10.062;2023-04-25T09:27:21;6.83;;;2.40;;
9972;SDS011;5027;53.560;10.062;2023-04-25T09:30:01;5.20;;;2.40;;
9972;SDS011;5027;53.560;10.062;2023-04-25T09:32:45;4.97;;;2.53;;
9972;SDS011;5027;53.560;10.062;2023-04-25T09:35:11;6.83;;;2.77;;
9972;SDS011;5027;53.560;10.062;2023-04-25T09:37:51;8.27;;;3.13;;
9972;SDS011;5027;53.560;10.062;2023-04-25T09:40:41;6.60;;;2.97;;
9972;SDS011;5027;53.560;10.062;2023-04-25T09:43:22;8.83;;;3.00;;
9972;SDS011;5027;53.560;10.062;2023-04-25T09:45:51;4.53;;;2.00;;
9972;SDS011;5027;53.560;10.062;2023-04-25T09:48:22;3.70;;;2.20;;
9972;SDS011;5027;53.560;10.062;2023-04-25T09:51:06;3.40;;;2.03;;
9972;SDS011;5027;53.560;10.062;2023-04-25T09:53:38;4.23;;;1.83;;
9972;SDS011;5027;53.560;10.062;2023-04-25T09:56:28;2.70;;;1.93;;
9972;SDS011;5027;53.560;10.062;2023-04-25T09:59:03;4.47;;;2.27;;
9972;SDS011;5027;53.560;10.062;2023-04-25T10:01:32;6.07;;;2.37;;
9972;SDS011;5027;53.560;10.062;2023-04-25T10:04:06;9.23;;;3.30;;
9972;SDS011;5027;53.560;10.062;2023-04-25T10:06:45;4.23;;;2.23;;
9972;SDS011;5027;53.560;10.062;2023-04-25T10:09:16;7.40;;;2.90;;
9972;SDS011;5027;53.560;10.062;2023-04-25T10:11:46;8.33;;;2.87;;
9972;SDS011;5027;53.560;10.062;2023-04-25T10:14:16;9.03;;;3.10;;
9972;SDS011;5027;53.560;10.062;2023-04-25T10:16:44;8.77;;;3.10;;
9972;SDS011;5027;53.560;10.062;2023-04-25T10:19:11;8.47;;;2.63;;
9972;SDS011;5027;53.560;10.062;2023-04-25T10:21:40;5.87;;;2.43;;
9972;SDS011;5027;53.560;10.062;2023-04-25T10:24:14;3.97;;;2.17;;
9972;SDS011;5027;53.560;10.062;2023-04-25T10:26:41;3.50;;;2.00;;
9972;SDS011;5027;53.560;10.062;2023-04-25T10:29:08;3.17;;;2.00;;
9972;SDS011;5027;53.560;10.062;2023-04-25T10:31:44;7.47;;;2.30;;
9972;SDS011;5027;53.560;10.062;2023-04-25T10:34:12;3.77;;;2.37;;
9972;SDS011;5027;53.560;10.062;2023-04-25T10:36:39;4.23;;;2.07;;
9972;SDS011;5027;53.560;10.062;2023-04-25T10:39:06;3.93;;;2.40;;
9972;SDS011;5027;53.560;10.062;2023-04-25T10:41:45;4.07;;;2.27;;
9972;SDS011;5027;53.560;10.062;2023-04-25T10:44:14;4.47;;;2.20;;
9972;SDS011;5027;53.560;10.062;2023-04-25T10:46:41;6.57;;;2.87;;
9972;SDS011;5027;53.560;10.062;2023-04-25T10:49:11;3.63;;;2.10;;
9972;SDS011;5027;53.560;10.062;2023-04-25T10:54:55;7.53;;;2.50;;
9972;SDS011;5027;53.560;10.062;2023-04-25T10:57:41;8.80;;;2.53;;
9972;SDS011;5027;53.560;10.062;2023-04-25T11:00:14;4.13;;;2.20;;
9972;SDS011;5027;53.560;10.062;2023-04-25T11:02:45;6.53;;;2.53;;
9972;SDS011;5027;53.560;10.062;2023-04-25T11:07:54;8.13;;;2.60;;
9972;SDS011;5027;53.560;10.062;2023-04-25T11:10:32;6.60;;;2.83;;
9972;SDS011;5027;53.560;10.062;2023-04-25T11:13:03;12.70;;;3.10;;
9972;SDS011;5027;53.560;10.062;2023-04-25T11:15:30;7.33;;;2.87;;
9972;SDS011;5027;53.560;10.062;2023-04-25T11:17:56;6.10;;;2.33;;
9972;SDS011;5027;53.560;10.062;2023-04-25T11:20:25;9.10;;;2.47;;
9972;SDS011;5027;53.560;10.062;2023-04-25T11:22:54;5.90;;;2.87;;
9972;SDS011;5027;53.560;10.062;2023-04-25T11:25:23;7.90;;;2.73;;
9972;SDS011;5027;53.560;10.062;2023-04-25T11:27:52;7.17;;;2.60;;
9972;SDS011;5027;53.560;10.062;2023-04-25T11:30:20;4.77;;;1.77;;
9972;SDS011;5027;53.560;10.062;2023-04-25T11:32:48;4.33;;;2.27;;
9972;SDS011;5027;53.560;10.062;2023-04-25T11:35:14;3.97;;;2.10;;
9972;SDS011;5027;53.560;10.062;2023-04-25T11:37:43;4.60;;;2.17;;
9972;SDS011;5027;53.560;10.062;2023-04-25T11:40:11;4.37;;;1.83;;
9972;SDS011;5027;53.560;10.062;2023-04-25T11:42:39;6.33;;;2.40;;
9972;SDS011;5027;53.560;10.062;2023-04-25T11:45:10;10.40;;;3.17;;
9972;SDS011;5027;53.560;10.062;2023-04-25T11:47:37;4.97;;;1.80;;
9972;SDS011;5027;53.560;10.062;2023-04-25T11:50:05;4.97;;;2.10;;
9972;SDS011;5027;53.560;10.062;2023-04-25T11:52:40;6.73;;;2.57;;
9972;SDS011;5027;53.560;10.062;2023-04-25T11:57:42;2.77;;;1.87;;
9972;SDS011;5027;53.560;10.062;2023-04-25T12:00:14;4.93;;;1.90;;
9972;SDS011;5027;53.560;10.062;2023-04-25T12:02:45;4.23;;;2.20;;
9972;SDS011;5027;53.560;10.062;2023-04-25T12:05:14;5.57;;;2.13;;
9972;SDS011;5027;53.560;10.062;2023-04-25T12:07:57;6.20;;;2.43;;
9972;SDS011;5027;53.560;10.062;2023-04-25T12:10:24;4.10;;;2.07;;
9972;SDS011;5027;53.560;10.062;2023-04-25T12:12:52;2.40;;;1.77;;
9972;SDS011;5027;53.560;10.062;2023-04-25T12:15:23;4.23;;;1.77;;
9972;SDS011;5027;53.560;10.062;2023-04-25T12:17:52;4.97;;;2.13;;
9972;SDS011;5027;53.560;10.062;2023-04-25T12:20:23;4.20;;;1.80;;
9972;SDS011;5027;53.560;10.062;2023-04-25T12:22:51;3.40;;;1.67;;
9972;SDS011;5027;53.560;10.062;2023-04-25T12:28:11;4.23;;;1.80;;
9972;SDS011;5027;53.560;10.062;2023-04-25T12:33:28;3.90;;;2.03;;
9972;SDS011;5027;53.560;10.062;2023-04-25T12:35:56;8.43;;;2.40;;
9972;SDS011;5027;53.560;10.062;2023-04-25T12:38:24;8.40;;;2.17;;
9972;SDS011;5027;53.560;10.062;2023-04-25T12:40:56;2.43;;;1.50;;
9972;SDS011;5027;53.560;10.062;2023-04-25T12:43:24;4.30;;;2.13;;
9972;SDS011;5027;53.560;10.062;2023-04-25T12:45:51;2.13;;;1.50;;
9972;SDS011;5027;53.560;10.062;2023-04-25T12:48:19;3.53;;;2.00;;
9972;SDS011;5027;53.560;10.062;2023-04-25T12:50:47;3.00;;;1.63;;
9972;SDS011;5027;53.560;10.062;2023-04-25T12:53:16;2.90;;;1.60;;
9972;SDS011;5027;53.560;10.062;2023-04-25T12:55:43;5.37;;;2.07;;
9972;SDS011;5027;53.560;10.062;2023-04-25T12:58:12;8.43;;;2.73;;
9972;SDS011;5027;53.560;10.062;2023-04-25T13:00:39;3.53;;;1.93;;
9972;SDS011;5027;53.560;10.062;2023-04-25T13:03:07;2.83;;;1.50;;
9972;SDS011;5027;53.560;10.062;2023-04-25T13:05:35;4.00;;;1.80;;
9972;SDS011;5027;53.560;10.062;2023-04-25T13:08:02;2.73;;;1.80;;
9972;SDS011;5027;53.560;10.062;2023-04-25T13:10:29;2.73;;;1.87;;
9972;SDS011;5027;53.560;10.062;2023-04-25T13:12:55;2.80;;;1.63;;
9972;SDS011;5027;53.560;10.062;2023-04-25T13:15:22;2.77;;;1.53;;
9972;SDS011;5027;53.560;10.062;2023-04-25T13:17:49;2.90;;;1.93;;
9972;SDS011;5027;53.560;10.062;2023-04-25T13:20:16;3.03;;;1.90;;
9972;SDS011;5027;53.560;10.062;2023-04-25T13:22:44;2.40;;;1.73;;
9972;SDS011;5027;53.560;10.062;2023-04-25T13:25:11;9.57;;;2.23;;
9972;SDS011;5027;53.560;10.062;2023-04-25T13:27:38;2.77;;;1.73;;
9972;SDS011;5027;53.560;10.062;2023-04-25T13:30:06;3.27;;;1.93;;
9972;SDS011;5027;53.560;10.062;2023-04-25T13:32:34;4.53;;;1.67;;
9972;SDS011;5027;53.560;10.062;2023-04-25T13:35:05;2.60;;;1.67;;
9972;SDS011;5027;53.560;10.062;2023-04-25T13:37:36;5.03;;;2.40;;
9972;SDS011;5027;53.560;10.062;2023-04-25T13:40:03;5.37;;;2.40;;
9972;SDS011;5027;53.560;10.062;2023-04-25T13:42:32;4.30;;;2.30;;
9972;SDS011;5027;53.560;10.062;2023-04-25T13:44:59;6.43;;;2.57;;
9972;SDS011;5027;53.560;10.062;2023-04-25T13:47:26;2.63;;;1.77;;
9972;SDS011;5027;53.560;10.062;2023-04-25T13:49:53;5.87;;;2.40;;
9972;SDS011;5027;53.560;10.062;2023-04-25T13:52:20;7.73;;;2.80;;
9972;SDS011;5027;53.560;10.062;2023-04-25T13:54:47;3.73;;;1.90;;
9972;SDS011;5027;53.560;10.062;2023-04-25T13:57:14;3.23;;;2.00;;
9972;SDS011;5027;53.560;10.062;2023-04-25T13:59:41;5.93;;;2.40;;
9972;SDS011;5027;53.560;10.062;2023-04-25T14:02:08;4.10;;;1.80;;
9972;SDS011;5027;53.560;10.062;2023-04-25T14:04:35;2.97;;;1.80;;
9972;SDS011;5027;53.560;10.062;2023-04-25T14:07:02;5.80;;;1.90;;
9972;SDS011;5027;53.560;10.062;2023-04-25T14:09:31;3.23;;;1.73;;
9972;SDS011;5027;53.560;10.062;2023-04-25T14:11:58;4.27;;;2.13;;
9972;SDS011;5027;53.560;10.062;2023-04-25T14:14:25;4.77;;;2.10;;
9972;SDS011;5027;53.560;10.062;2023-04-25T14:16:52;5.17;;;2.30;;
9972;SDS011;5027;53.560;10.062;2023-04-25T14:19:20;2.00;;;1.53;;
9972;SDS011;5027;53.560;10.062;2023-04-25T14:21:47;4.37;;;1.83;;
9972;SDS011;5027;53.560;10.062;2023-04-25T14:24:14;3.53;;;1.80;;
9972;SDS011;5027;53.560;10.062;2023-04-25T14:26:42;5.80;;;2.57;;
9972;SDS011;5027;53.560;10.062;2023-04-25T14:29:09;6.00;;;2.03;;
9972;SDS011;5027;53.560;10.062;2023-04-25T14:31:38;3.03;;;2.03;;
9972;SDS011;5027;53.560;10.062;2023-04-25T14:34:06;12.93;;;3.50;;
9972;SDS011;5027;53.560;10.062;2023-04-25T14:36:34;6.40;;;2.40;;
9972;SDS011;5027;53.560;10.062;2023-04-25T14:39:02;12.37;;;3.10;;
9972;SDS011;5027;53.560;10.062;2023-04-25T14:41:31;7.60;;;2.20;;
9972;SDS011;5027;53.560;10.062;2023-04-25T14:43:57;7.67;;;2.90;;
9972;SDS011;5027;53.560;10.062;2023-04-25T14:46:24;6.97;;;2.67;;
9972;SDS011;5027;53.560;10.062;2023-04-25T14:48:52;6.30;;;2.67;;
9972;SDS011;5027;53.560;10.062;2023-04-25T14:51:19;4.03;;;2.03;;
9972;SDS011;5027;53.560;10.062;2023-04-25T14:53:46;6.83;;;2.60;;
9972;SDS011;5027;53.560;10.062;2023-04-25T14:56:13;4.77;;;1.80;;
9972;SDS011;5027;53.560;10.062;2023-04-25T14:58:40;3.97;;;1.63;;
9972;SDS011;5027;53.560;10.062;2023-04-25T15:01:07;7.87;;;2.20;;
9972;SDS011;5027;53.560;10.062;2023-04-25T15:03:36;6.77;;;2.27;;
9972;SDS011;5027;53.560;10.062;2023-04-25T15:06:04;5.90;;;2.23;;
9972;SDS011;5027;53.560;10.062;2023-04-25T15:08:32;3.50;;;1.50;;
9972;SDS011;5027;53.560;10.062;2023-04-25T15:10:59;4.67;;;2.40;;
9972;SDS011;5027;53.560;10.062;2023-04-25T15:13:26;7.73;;;2.50;;
9972;SDS011;5027;53.560;10.062;2023-04-25T15:15:53;4.80;;;1.90;;
9972;SDS011;5027;53.560;10.062;2023-04-25T15:18:21;8.07;;;3.07;;
9972;SDS011;5027;53.560;10.062;2023-04-25T15:20:52;5.60;;;1.97;;
9972;SDS011;5027;53.560;10.062;2023-04-25T15:23:19;7.03;;;2.70;;
9972;SDS011;5027;53.560;10.062;2023-04-25T15:25:47;3.53;;;1.90;;